createdAt,value
2018-04-06T00:00:24.713Z,101549.58
2018-04-06T00:02:53.526Z,101548.23
2018-04-06T00:05:20.304Z,101550.90
2018-04-06T00:07:46.871Z,101556.64
2018-04-06T00:10:13.839Z,101556.64
2018-04-06T00:12:42.493Z,101557.55
2018-04-06T00:15:09.241Z,101563.72
2018-04-06T00:17:36.696Z,101563.73
2018-04-06T00:20:03.292Z,101563.30
2018-04-06T00:22:30.235Z,101563.72
2018-04-06T00:24:56.919Z,101563.73
2018-04-06T00:27:24.467Z,101564.63
2018-04-06T00:29:51.330Z,101558.87
2018-04-06T00:32:18.305Z,101554.89
2018-04-06T00:34:45.259Z,101556.17
2018-04-06T00:37:13.520Z,101549.10
2018-04-06T00:39:40.445Z,101551.29
2018-04-06T00:42:09.628Z,101550.00
2018-04-06T00:44:37.453Z,101546.88
2018-04-06T00:47:04.854Z,101541.55
2018-04-06T00:49:32.140Z,101537.14
2018-04-06T00:51:59.588Z,101534.48
2018-04-06T00:54:26.592Z,101537.56
2018-04-06T00:56:53.236Z,101538.00
2018-04-06T00:59:19.876Z,101535.80
2018-04-06T01:01:48.316Z,101535.81
2018-04-06T01:04:15.732Z,101538.42
2018-04-06T01:06:43.463Z,101537.56
2018-04-06T01:09:10.037Z,101534.48
2018-04-06T01:11:36.813Z,101542.84
2018-04-06T01:14:04.396Z,101535.77
2018-04-06T01:16:30.958Z,101537.53
2018-04-06T01:18:57.600Z,101534.91
2018-04-06T01:21:24.258Z,101532.21
2018-04-06T01:23:54.860Z,101530.88
2018-04-06T01:26:21.789Z,101528.69
2018-04-06T01:28:48.356Z,101526.50
2018-04-06T01:31:16.545Z,101527.36
2018-04-06T01:33:43.917Z,101538.86
2018-04-06T01:36:10.808Z,101536.23
2018-04-06T01:38:38.235Z,101538.86
2018-04-06T01:41:05.061Z,101535.77
2018-04-06T01:43:32.731Z,101535.73
2018-04-06T01:46:00.883Z,101536.62
2018-04-06T01:48:27.893Z,101530.02
2018-04-06T01:50:54.668Z,101529.59
2018-04-06T01:53:21.451Z,101528.22
2018-04-06T01:55:48.178Z,101539.76
2018-04-06T01:58:15.478Z,101523.38
2018-04-06T02:00:42.104Z,101530.45
2018-04-06T02:03:10.649Z,101531.35
2018-04-06T02:05:37.230Z,101525.09
2018-04-06T02:08:03.881Z,101529.98
2018-04-06T02:10:30.536Z,101533.54
2018-04-06T02:12:57.114Z,101540.19
2018-04-06T02:15:23.679Z,101537.95
2018-04-06T02:17:50.325Z,101530.88
2018-04-06T02:20:17.060Z,101529.13
2018-04-06T02:22:44.162Z,101518.92
2018-04-06T02:25:11.672Z,101518.45
2018-04-06T02:27:39.159Z,101521.11
2018-04-06T02:30:05.993Z,101522.91
2018-04-06T02:32:32.567Z,101525.60
2018-04-06T02:34:59.235Z,101522.01
2018-04-06T02:37:26.681Z,101522.91
2018-04-06T02:39:53.261Z,101522.01
2018-04-06T02:42:19.852Z,101526.89
2018-04-06T02:44:47.306Z,101528.66
2018-04-06T02:47:14.271Z,101524.23
2018-04-06T02:49:41.232Z,101521.14
2018-04-06T02:52:08.640Z,101518.45
2018-04-06T02:54:35.493Z,101518.91
2018-04-06T02:57:02.657Z,101525.56
2018-04-06T02:59:29.678Z,101521.53
2018-04-06T03:01:57.519Z,101523.77
2018-04-06T03:04:24.534Z,101518.45
2018-04-06T03:06:52.214Z,101514.88
2018-04-06T03:09:18.922Z,101524.66
2018-04-06T03:11:46.228Z,101520.67
2018-04-06T03:14:13.245Z,101519.78
2018-04-06T03:16:40.773Z,101521.09
2018-04-06T03:19:08.174Z,101525.98
2018-04-06T03:21:34.777Z,101524.62
2018-04-06T03:24:01.394Z,101527.31
2018-04-06T03:26:28.911Z,101528.22
2018-04-06T03:28:58.745Z,101522.90
2018-04-06T03:31:25.346Z,101524.19
2018-04-06T03:33:52.986Z,101518.91
2018-04-06T03:36:19.709Z,101513.12
2018-04-06T03:38:46.354Z,101508.23
2018-04-06T03:41:13.366Z,101508.70
2018-04-06T03:43:39.991Z,101507.38
2018-04-06T03:46:06.769Z,101506.05
2018-04-06T03:48:33.774Z,101504.72
2018-04-06T03:51:00.425Z,101510.47
2018-04-06T03:53:27.684Z,101510.89
2018-04-06T03:55:54.792Z,101510.03
2018-04-06T03:58:21.511Z,101517.55
2018-04-06T04:00:50.893Z,101514.88
2018-04-06T04:03:17.611Z,101519.77
2018-04-06T04:05:45.043Z,101522.00
2018-04-06T04:08:12.482Z,101524.66
2018-04-06T04:10:39.108Z,101529.08
2018-04-06T04:13:06.260Z,101525.09
2018-04-06T04:15:33.497Z,101524.19
2018-04-06T04:18:00.137Z,101524.19
2018-04-06T04:20:27.365Z,101514.02
2018-04-06T04:22:54.750Z,101514.45
2018-04-06T04:25:22.568Z,101507.81
2018-04-06T04:27:50.436Z,101512.69
2018-04-06T04:30:17.996Z,101510.47
2018-04-06T04:32:44.885Z,101510.86
2018-04-06T04:35:11.717Z,101510.00
2018-04-06T04:37:39.404Z,101506.01
2018-04-06T04:40:06.587Z,101502.92
2018-04-06T04:42:33.198Z,101506.95
2018-04-06T04:45:00.588Z,101514.06
2018-04-06T04:47:27.266Z,101512.27
2018-04-06T04:49:54.467Z,101514.46
2018-04-06T04:52:21.984Z,101514.88
2018-04-06T04:54:48.671Z,101522.82
2018-04-06T04:57:15.319Z,101523.76
2018-04-06T04:59:42.934Z,101522.82
2018-04-06T05:02:09.507Z,101517.97
2018-04-06T05:04:36.173Z,101514.46
2018-04-06T05:07:05.077Z,101516.21
2018-04-06T05:09:33.108Z,101518.88
2018-04-06T05:12:00.504Z,101510.94
2018-04-06T05:14:28.297Z,101513.12
2018-04-06T05:16:56.449Z,101515.35
2018-04-06T05:19:24.169Z,101506.91
2018-04-06T05:21:51.938Z,101507.81
2018-04-06T05:24:19.498Z,101508.70
2018-04-06T05:26:46.887Z,101499.83
2018-04-06T05:29:13.500Z,101504.29
2018-04-06T05:31:40.936Z,101503.39
2018-04-06T05:34:09.577Z,101505.11
2018-04-06T05:36:36.118Z,101500.27
2018-04-06T05:39:03.584Z,101513.09
2018-04-06T05:41:30.494Z,101511.33
2018-04-06T05:43:57.319Z,101517.50
2018-04-06T05:46:24.000Z,101513.52
2018-04-06T05:48:50.658Z,101509.09
2018-04-06T05:51:17.199Z,101508.63
2018-04-06T05:53:45.671Z,101505.97
2018-04-06T05:56:12.224Z,101510.81
2018-04-06T05:58:43.408Z,101507.77
2018-04-06T06:01:11.026Z,101510.00
2018-04-06T06:03:37.698Z,101501.98
2018-04-06T06:06:04.359Z,101498.93
2018-04-06T06:08:30.930Z,101494.22
2018-04-06T06:10:58.512Z,101502.83
2018-04-06T06:13:25.950Z,101503.78
2018-04-06T06:15:53.497Z,101503.42
2018-04-06T06:18:20.437Z,101499.91
2018-04-06T06:20:47.203Z,101499.74
2018-04-06T06:23:15.867Z,101495.72
2018-04-06T06:25:44.315Z,101496.57
2018-04-06T06:28:11.193Z,101496.57
2018-04-06T06:30:37.849Z,101500.91
2018-04-06T06:33:04.573Z,101505.80
2018-04-06T06:35:32.091Z,101508.45
2018-04-06T06:37:59.592Z,101498.67
2018-04-06T06:40:27.795Z,101507.12
2018-04-06T06:42:55.707Z,101504.42
2018-04-06T06:45:23.053Z,101496.02
2018-04-06T06:47:50.801Z,101499.58
2018-04-06T06:50:17.425Z,101489.37
2018-04-06T06:52:45.474Z,101487.57
2018-04-06T06:55:12.773Z,101488.90
2018-04-06T06:57:43.846Z,101488.47
2018-04-06T07:00:11.735Z,101485.38
2018-04-06T07:02:38.415Z,101485.34
2018-04-06T07:05:05.130Z,101483.97
2018-04-06T07:07:32.949Z,101477.79
2018-04-06T07:09:59.710Z,101468.02
2018-04-06T07:12:30.965Z,101470.24
2018-04-06T07:14:58.546Z,101451.20
2018-04-06T07:17:25.237Z,101455.62
2018-04-06T07:19:51.900Z,101448.98
2018-04-06T07:24:52.356Z,101435.69
2018-04-06T07:27:19.882Z,101425.95
2018-04-06T07:29:47.185Z,101422.39
2018-04-06T07:32:14.027Z,101427.70
2018-04-06T07:34:40.889Z,101420.16
2018-04-06T07:37:08.338Z,101417.50
2018-04-06T07:39:35.793Z,101425.01
2018-04-06T07:42:02.603Z,101413.98
2018-04-06T07:44:29.628Z,101422.39
2018-04-06T07:46:58.954Z,101423.67
2018-04-06T07:49:28.982Z,101420.12
2018-04-06T07:51:55.849Z,101418.41
2018-04-06T07:54:25.984Z,101414.84
2018-04-06T07:56:53.658Z,101410.86
2018-04-06T07:59:21.347Z,101419.73
2018-04-06T08:01:48.330Z,101424.62
2018-04-06T08:04:14.979Z,101424.15
2018-04-06T08:06:41.990Z,101417.94
2018-04-06T08:09:08.935Z,101414.41
2018-04-06T08:11:36.744Z,101414.84
2018-04-06T08:14:03.397Z,101421.02
2018-04-06T08:16:31.065Z,101414.84
2018-04-06T08:18:58.765Z,101408.20
2018-04-06T08:21:30.418Z,101405.54
2018-04-06T08:23:57.109Z,101417.50
2018-04-06T08:26:24.328Z,101414.41
2018-04-06T08:28:51.965Z,101410.17
2018-04-06T08:31:18.730Z,101415.92
2018-04-06T08:33:45.796Z,101416.73
2018-04-06T08:36:12.579Z,101410.95
2018-04-06T08:38:39.211Z,101419.34
2018-04-06T08:41:09.314Z,101411.77
2018-04-06T08:43:36.069Z,101407.45
2018-04-06T08:46:03.666Z,101403.55
2018-04-06T08:48:31.201Z,101408.21
2018-04-06T08:50:57.772Z,101407.70
2018-04-06T08:53:24.935Z,101407.23
2018-04-06T08:55:52.625Z,101395.66
2018-04-06T08:58:19.341Z,101401.01
2018-04-06T09:00:48.042Z,101382.83
2018-04-06T09:03:18.693Z,101386.81
2018-04-06T09:05:45.510Z,101394.33
2018-04-06T09:08:12.900Z,101389.95
2018-04-06T09:10:40.621Z,101397.45
2018-04-06T09:13:07.342Z,101397.92
2018-04-06T09:15:37.593Z,101391.28
2018-04-06T09:18:04.923Z,101382.44
2018-04-06T09:20:31.526Z,101389.09
2018-04-06T09:22:59.658Z,101387.25
2018-04-06T09:25:26.377Z,101381.03
2018-04-06T09:27:53.106Z,101378.38
2018-04-06T09:30:20.346Z,101374.43
2018-04-06T09:32:47.324Z,101358.96
2018-04-06T09:35:13.991Z,101362.89
2018-04-06T09:37:40.954Z,101351.36
2018-04-06T09:40:09.155Z,101344.77
2018-04-06T09:42:36.931Z,101335.94
2018-04-06T09:45:03.606Z,101333.28
2018-04-06T09:47:31.235Z,101330.66
2018-04-06T09:50:01.537Z,101325.30
2018-04-06T09:52:29.214Z,101321.79
2018-04-06T09:54:56.046Z,101323.06
2018-04-06T09:57:22.743Z,101316.00
2018-04-06T09:59:50.173Z,101323.88
2018-04-06T10:02:16.995Z,101320.37
2018-04-06T10:04:43.697Z,101317.76
2018-04-06T10:07:10.293Z,101317.33
2018-04-06T10:09:37.922Z,101312.02
2018-04-06T10:12:05.298Z,101310.69
2018-04-06T10:14:32.165Z,101305.36
2018-04-06T10:16:58.872Z,101305.36
2018-04-06T10:19:26.743Z,101307.13
2018-04-06T10:21:53.424Z,101300.94
2018-04-06T10:24:26.807Z,101303.56
2018-04-06T10:26:53.980Z,101300.05
2018-04-06T10:29:20.581Z,101299.14
2018-04-06T10:31:47.301Z,101292.50
2018-04-06T10:34:15.501Z,101291.22
2018-04-06T10:36:42.751Z,101288.99
2018-04-06T10:39:11.596Z,101281.39
2018-04-06T10:41:38.569Z,101282.78
2018-04-06T10:44:05.751Z,101285.00
2018-04-06T10:46:32.470Z,101280.13
2018-04-06T10:48:59.163Z,101275.22
2018-04-06T10:51:29.110Z,101266.39
2018-04-06T10:53:56.510Z,101267.67
2018-04-06T10:56:23.203Z,101261.94
2018-04-06T10:58:50.943Z,101255.30
2018-04-06T11:01:17.721Z,101258.85
2018-04-06T11:03:45.456Z,101257.00
2018-04-06T11:06:12.791Z,101254.34
2018-04-06T11:08:39.861Z,101249.92
2018-04-06T11:11:09.306Z,101242.34
2018-04-06T11:13:36.384Z,101244.13
2018-04-06T11:16:04.660Z,101242.81
2018-04-06T11:18:32.322Z,101236.17
2018-04-06T11:20:59.722Z,101234.50
2018-04-06T11:23:26.336Z,101226.44
2018-04-06T11:25:53.778Z,101223.39
2018-04-06T11:28:20.832Z,101214.98
2018-04-06T11:30:47.425Z,101216.75
2018-04-06T11:33:15.083Z,101215.38
2018-04-06T11:35:41.958Z,101209.78
2018-04-06T11:38:09.568Z,101214.23
2018-04-06T11:40:37.024Z,101207.92
2018-04-06T11:43:03.792Z,101208.02
2018-04-06T11:45:31.258Z,101214.08
2018-04-06T11:47:58.028Z,101205.55
2018-04-06T11:50:25.419Z,101201.19
2018-04-06T11:52:52.386Z,101197.24
2018-04-06T11:55:19.050Z,101189.61
2018-04-06T11:57:45.815Z,101192.45
2018-04-06T12:00:12.882Z,101181.73
2018-04-06T12:02:39.539Z,101183.10
2018-04-06T12:05:06.114Z,101173.80
2018-04-06T12:07:32.748Z,101173.61
2018-04-06T12:09:59.444Z,101164.79
2018-04-06T12:12:26.510Z,101158.52
2018-04-06T12:14:53.326Z,101160.66
2018-04-06T12:17:19.946Z,101154.92
2018-04-06T12:19:47.437Z,101146.19
2018-04-06T12:22:14.996Z,101144.53
2018-04-06T12:24:41.988Z,101138.13
2018-04-06T12:27:08.715Z,101135.52
2018-04-06T12:29:35.967Z,101126.64
2018-04-06T12:32:02.623Z,101118.67
2018-04-06T12:34:30.562Z,101120.91
2018-04-06T12:36:58.462Z,101119.67
2018-04-06T12:39:25.325Z,101123.56
2018-04-06T12:41:52.060Z,101109.89
2018-04-06T12:44:20.197Z,101106.66
2018-04-06T12:46:47.701Z,101092.09
2018-04-06T12:49:16.697Z,101096.51
2018-04-06T12:51:43.694Z,101089.67
2018-04-06T12:54:10.708Z,101093.98
2018-04-06T12:56:37.597Z,101089.48
2018-04-06T12:59:04.227Z,101085.96
2018-04-06T13:01:32.167Z,101070.11
2018-04-06T13:03:59.590Z,101072.72
2018-04-06T13:06:31.807Z,101069.69
2018-04-06T13:08:58.594Z,101059.00
2018-04-06T13:11:26.102Z,101060.01
2018-04-06T13:13:53.058Z,101055.13
2018-04-06T13:16:19.753Z,101048.19
2018-04-06T13:18:46.330Z,101047.17
2018-04-06T13:21:12.921Z,101048.55
2018-04-06T13:23:39.603Z,101045.47
2018-04-06T13:26:06.880Z,101033.94
2018-04-06T13:28:33.578Z,101028.83
2018-04-06T13:31:00.327Z,101017.71
2018-04-06T13:33:27.184Z,101005.77
2018-04-06T13:38:26.743Z,101015.06
2018-04-06T13:40:53.374Z,101002.15
2018-04-06T13:43:20.789Z,101006.08
2018-04-06T13:45:50.528Z,101003.84
2018-04-06T13:48:17.511Z,100989.70
2018-04-06T13:50:44.055Z,100990.17
2018-04-06T13:53:10.630Z,100989.66
2018-04-06T13:55:37.313Z,100981.26
2018-04-06T13:58:04.814Z,100979.09
2018-04-06T14:00:32.601Z,100970.58
2018-04-06T14:02:59.827Z,100951.06
2018-04-06T14:05:26.597Z,100951.53
2018-04-06T14:07:53.353Z,100946.66
2018-04-06T14:10:20.852Z,100939.21
2018-04-06T14:12:47.647Z,100932.95
2018-04-06T14:15:14.417Z,100941.28
2018-04-06T14:17:41.860Z,100936.55
2018-04-06T14:20:08.732Z,100939.58
2018-04-06T14:22:35.316Z,100931.08
2018-04-06T14:25:02.782Z,100938.67
2018-04-06T14:27:29.397Z,100938.25
2018-04-06T14:29:55.943Z,100927.05
2018-04-06T14:32:22.757Z,100923.43
2018-04-06T14:34:49.437Z,100927.09
2018-04-06T14:37:15.990Z,100921.35
2018-04-06T14:39:42.564Z,100916.83
2018-04-06T14:42:09.091Z,100913.12
2018-04-06T14:44:36.383Z,100911.84
2018-04-06T14:47:02.904Z,100906.05
2018-04-06T14:49:29.442Z,100904.72
2018-04-06T14:51:56.714Z,100894.09
2018-04-06T14:54:23.284Z,100900.69
2018-04-06T14:56:49.790Z,100893.62
2018-04-06T14:59:16.336Z,100884.30
2018-04-06T15:01:43.602Z,100882.13
2018-04-06T15:04:10.190Z,100873.24
2018-04-06T15:06:36.739Z,100882.55
2018-04-06T15:09:04.041Z,100891.39
2018-04-06T15:11:30.554Z,100886.12
2018-04-06T15:13:57.895Z,100878.58
2018-04-06T15:16:24.556Z,100875.86
2018-04-06T15:18:51.138Z,100868.73
2018-04-06T15:21:17.743Z,100866.12
2018-04-06T15:23:44.357Z,100866.98
2018-04-06T15:26:10.912Z,100868.69
2018-04-06T15:28:37.530Z,100870.97
2018-04-06T15:31:04.052Z,100858.58
2018-04-06T15:33:30.570Z,100861.19
2018-04-06T15:35:57.028Z,100857.68
2018-04-06T15:38:23.512Z,100854.64
2018-04-06T15:40:49.980Z,100851.09
2018-04-06T15:43:16.479Z,100846.20
2018-04-06T15:45:42.947Z,100839.93
2018-04-06T15:48:10.202Z,100836.47
2018-04-06T15:50:36.724Z,100832.43
2018-04-06T15:53:03.218Z,100829.30
2018-04-06T15:55:29.700Z,100837.26
2018-04-06T15:57:56.967Z,100833.72
2018-04-06T16:00:23.449Z,100827.91
2018-04-06T16:02:50.719Z,100824.72
2018-04-06T16:05:17.215Z,100818.08
2018-04-06T16:07:43.709Z,100815.48
2018-04-06T16:10:10.184Z,100821.22
2018-04-06T16:12:36.637Z,100823.97
2018-04-06T16:15:03.143Z,100816.76
2018-04-06T16:17:29.606Z,100819.73
2018-04-06T16:19:56.097Z,100817.48
2018-04-06T16:22:22.581Z,100811.76
2018-04-06T16:24:49.839Z,100810.95
2018-04-06T16:27:16.311Z,100814.09
2018-04-06T16:29:42.816Z,100811.33
2018-04-06T16:32:09.286Z,100814.89
2018-04-06T16:34:35.792Z,100803.41
2018-04-06T16:37:03.017Z,100810.00
2018-04-06T16:39:29.550Z,100805.59
2018-04-06T16:41:56.029Z,100810.00
2018-04-06T16:44:22.504Z,100809.63
2018-04-06T16:46:48.975Z,100811.31
2018-04-06T16:49:15.475Z,100808.23
2018-04-06T16:51:42.708Z,100804.62
2018-04-06T16:54:09.207Z,100800.70
2018-04-06T16:56:36.444Z,100805.16
2018-04-06T16:59:02.962Z,100811.38
2018-04-06T17:01:29.416Z,100810.05
2018-04-06T17:03:55.918Z,100808.23
2018-04-06T17:06:22.381Z,100805.46
2018-04-06T17:08:48.879Z,100804.14
2018-04-06T17:11:16.100Z,100797.14
2018-04-06T17:13:42.602Z,100798.83
2018-04-06T17:16:09.100Z,100801.12
2018-04-06T17:18:35.595Z,100803.88
2018-04-06T17:21:02.068Z,100805.16
2018-04-06T17:23:31.823Z,100807.75
2018-04-06T17:25:59.149Z,100803.30
2018-04-06T17:28:25.658Z,100801.54
2018-04-06T17:30:52.897Z,100807.70
2018-04-06T17:33:19.397Z,100807.70
2018-04-06T17:35:46.645Z,100806.80
2018-04-06T17:38:13.140Z,100801.02
2018-04-06T17:40:40.371Z,100804.14
2018-04-06T17:43:06.852Z,100804.14
2018-04-06T17:45:33.319Z,100805.48
2018-04-06T17:47:59.799Z,100798.88
2018-04-06T17:50:26.274Z,100812.12
2018-04-06T17:52:52.766Z,100805.41
2018-04-06T17:55:19.229Z,100809.89
2018-04-06T17:57:46.089Z,100807.66
2018-04-06T18:00:12.567Z,100807.70
2018-04-06T18:02:39.080Z,100804.13
2018-04-06T18:05:05.668Z,100805.89
2018-04-06T18:07:32.154Z,100809.87
2018-04-06T18:09:58.796Z,100812.53
2018-04-06T18:12:26.062Z,100816.95
2018-04-06T18:14:52.575Z,100813.86
2018-04-06T18:17:19.050Z,100815.62
2018-04-06T18:19:45.555Z,100812.53
2018-04-06T18:22:12.005Z,100805.41
2018-04-06T18:24:38.484Z,100807.17
2018-04-06T18:27:05.024Z,100801.00
2018-04-06T18:29:31.537Z,100804.98
2018-04-06T18:31:58.910Z,100805.89
2018-04-06T18:34:26.194Z,100808.07
2018-04-06T18:36:53.457Z,100809.40
2018-04-06T18:39:20.768Z,100812.05
2018-04-06T18:41:47.252Z,100812.11
2018-04-06T18:44:13.764Z,100813.44
2018-04-06T18:46:41.017Z,100811.62
2018-04-06T18:49:07.514Z,100818.23
2018-04-06T18:51:34.063Z,100804.98
2018-04-06T18:54:00.583Z,100811.11
2018-04-06T18:56:27.051Z,100814.24
2018-04-06T18:58:55.070Z,100803.23
2018-04-06T19:01:22.561Z,100803.61
2018-04-06T19:03:49.103Z,100798.72
2018-04-06T19:06:16.201Z,100796.53
2018-04-06T19:08:42.724Z,100796.06
2018-04-06T19:11:09.262Z,100792.98
2018-04-06T19:13:35.919Z,100790.31
2018-04-06T19:16:02.790Z,100788.61
2018-04-06T19:18:30.107Z,100788.56
2018-04-06T19:20:57.328Z,100778.90
2018-04-06T19:23:24.156Z,100780.21
2018-04-06T19:25:50.673Z,100769.59
2018-04-06T19:28:17.148Z,100766.46
2018-04-06T19:30:43.623Z,100762.05
2018-04-06T19:33:11.627Z,100755.87
2018-04-06T19:35:38.976Z,100751.42
2018-04-06T19:38:05.541Z,100750.99
2018-04-06T19:40:32.050Z,100743.88
2018-04-06T19:42:58.706Z,100735.52
2018-04-06T19:45:25.210Z,100731.04
2018-04-06T19:47:51.705Z,100730.20
2018-04-06T19:50:18.946Z,100734.56
2018-04-06T19:52:45.502Z,100735.47
2018-04-06T19:55:12.013Z,100733.72
2018-04-06T19:57:39.252Z,100729.71
2018-04-06T20:00:05.775Z,100730.56
2018-04-06T20:02:32.254Z,100723.94
2018-04-06T20:04:58.754Z,100726.16
2018-04-06T20:07:25.236Z,100726.16
2018-04-06T20:09:51.722Z,100720.84
2018-04-06T20:12:18.207Z,100715.42
2018-04-06T20:14:44.717Z,100710.58
2018-04-06T20:17:11.259Z,100710.58
2018-04-06T20:19:38.513Z,100710.11
2018-04-06T20:22:05.114Z,100702.23
2018-04-06T20:24:31.633Z,100700.02
2018-04-06T20:26:58.128Z,100707.07
2018-04-06T20:29:25.395Z,100703.08
2018-04-06T20:31:52.645Z,100702.66
2018-04-06T20:34:19.152Z,100700.85
2018-04-06T20:36:45.636Z,100698.20
2018-04-06T20:39:12.512Z,100690.27
2018-04-06T20:41:39.859Z,100684.48
2018-04-06T20:44:07.297Z,100691.98
2018-04-06T20:46:34.098Z,100681.82
2018-04-06T20:49:00.658Z,100670.29
2018-04-06T20:51:27.910Z,100666.25
2018-04-06T20:53:55.195Z,100661.41
2018-04-06T20:56:22.444Z,100659.61
2018-04-06T20:58:49.158Z,100656.14
2018-04-06T21:01:16.026Z,100656.57
2018-04-06T21:03:42.618Z,100647.70
2018-04-06T21:06:09.072Z,100649.92
2018-04-06T21:08:35.576Z,100648.55
2018-04-06T21:11:02.060Z,100650.30
2018-04-06T21:13:29.322Z,100640.08
2018-04-06T21:15:56.560Z,100636.16
2018-04-06T21:18:23.045Z,100625.53
2018-04-06T21:20:49.520Z,100618.45
2018-04-06T21:23:16.797Z,100623.30
2018-04-06T21:25:44.121Z,100611.81
2018-04-06T21:28:10.652Z,100611.34
2018-04-06T21:30:37.122Z,100600.21
2018-04-06T21:33:03.664Z,100603.34
2018-04-06T21:35:30.134Z,100595.81
2018-04-06T21:37:56.612Z,100591.81
2018-04-06T21:40:23.094Z,100580.75
2018-04-06T21:42:49.613Z,100579.37
2018-04-06T21:45:16.082Z,100582.03
2018-04-06T21:47:42.603Z,100580.75
2018-04-06T21:50:13.296Z,100579.33
2018-04-06T21:52:42.811Z,100572.30
2018-04-06T21:55:11.350Z,100572.25
2018-04-06T21:57:39.310Z,100570.88
2018-04-06T22:00:07.890Z,100560.24
2018-04-06T22:02:36.325Z,100566.03
2018-04-06T22:05:06.369Z,100562.52
2018-04-06T22:07:33.134Z,100554.17
2018-04-06T22:10:00.176Z,100561.20
2018-04-06T22:12:26.645Z,100551.52
2018-04-06T22:14:53.150Z,100554.55
2018-04-06T22:17:19.618Z,100555.83
2018-04-06T22:19:46.107Z,100551.47
2018-04-06T22:22:12.617Z,100559.49
2018-04-06T22:24:39.121Z,100546.65
2018-04-06T22:27:07.113Z,100560.34
2018-04-06T22:29:33.626Z,100557.75
2018-04-06T22:32:00.118Z,100557.28
2018-04-06T22:34:26.625Z,100562.58
2018-04-06T22:36:53.878Z,100569.22
2018-04-06T22:39:20.390Z,100564.80
2018-04-06T22:41:46.878Z,100566.09
2018-04-06T22:44:13.683Z,100568.74
2018-04-06T22:46:40.937Z,100563.42
2018-04-06T22:49:07.450Z,100567.01
2018-04-06T22:51:33.937Z,100568.80
2018-04-06T22:54:00.468Z,100575.86
2018-04-06T22:56:26.973Z,100571.47
2018-04-06T22:58:53.481Z,100574.55
2018-04-06T23:01:19.976Z,100564.83
2018-04-06T23:03:46.490Z,100567.91
2018-04-06T23:06:12.973Z,100561.27
2018-04-06T23:08:39.485Z,100561.69
2018-04-06T23:11:06.733Z,100561.69
2018-04-06T23:13:33.244Z,100557.70
2018-04-06T23:15:59.728Z,100557.26
2018-04-06T23:18:26.236Z,100561.74
2018-04-06T23:20:53.489Z,100558.19
2018-04-06T23:23:20.914Z,100559.94
2018-04-06T23:25:47.476Z,100568.81
2018-04-06T23:28:13.990Z,100574.12
2018-04-06T23:30:40.472Z,100573.70
2018-04-06T23:33:06.998Z,100563.92
2018-04-06T23:35:33.482Z,100562.17
2018-04-06T23:37:59.994Z,100564.83
2018-04-06T23:40:26.482Z,100555.52
2018-04-06T23:42:52.995Z,100557.33
2018-04-06T23:45:19.487Z,100554.25
2018-04-06T23:47:45.973Z,100548.87
2018-04-06T23:50:12.480Z,100557.75
2018-04-06T23:52:38.964Z,100539.56
2018-04-06T23:55:05.474Z,100535.16
2018-04-06T23:57:32.726Z,100540.00
2018-04-06T23:59:59.237Z,100526.27
